Terminal Aerodrome Forecast
Issued by NWS Los Angeles, CA

Home | Current Version | Previous Version | Text Only | Print | Product List | Glossary On
Versions: 1 2 3 4 5 6 7 8 9 10 11 12 13 14 15 16 17 18 19 20 21 22 23 24 25 26
000
FTUS46 KLOX 312349
TAFSMX
TAF
KSMX 312349Z 0100/0124 30015G21KT P6SM SKC
     FM010300 30008KT P6SM BKN012
     FM010500 30006KT 6SM BR OVC007
     FM010700 VRB03KT 4SM BR OVC003
     FM011000 VRB03KT 1/2SM FG OVC001
     FM011500 VRB03KT 4SM BR OVC003
     FM011700 29006KT P6SM SCT012
     FM012000 30012KT P6SM FEW250=

USA.gov is the U.S. government's official web portal to all federal, state and local government web resources and services.